createdAt,value
2019-02-26T00:01:16.442Z,99.90
2019-02-26T00:03:43.904Z,99.10
2019-02-26T00:06:12.831Z,99.90
2019-02-26T00:08:41.821Z,99.80
2019-02-26T00:11:10.895Z,99.90
2019-02-26T00:13:39.766Z,99.90
2019-02-26T00:16:10.549Z,99.90
2019-02-26T00:18:39.356Z,99.90
2019-02-26T00:21:08.270Z,99.90
2019-02-26T00:23:37.197Z,99.90
2019-02-26T00:26:06.188Z,99.90
2019-02-26T00:28:36.446Z,99.90
2019-02-26T00:31:06.074Z,99.90
2019-02-26T00:33:34.973Z,99.90
2019-02-26T00:36:04.493Z,99.90
2019-02-26T00:38:35.427Z,99.90
2019-02-26T00:41:06.104Z,99.90
2019-02-26T00:43:36.749Z,99.90
2019-02-26T00:46:08.011Z,99.90
2019-02-26T00:48:38.392Z,99.90
2019-02-26T00:51:06.906Z,99.90
2019-02-26T00:53:35.848Z,99.90
2019-02-26T00:56:05.627Z,99.90
2019-02-26T00:58:38.878Z,99.90
2019-02-26T01:01:08.226Z,99.90
2019-02-26T01:03:37.120Z,99.90
2019-02-26T01:06:07.896Z,99.90
2019-02-26T01:08:38.009Z,99.90
2019-02-26T01:11:08.327Z,99.90
2019-02-26T01:13:37.791Z,99.90
2019-02-26T01:16:06.798Z,99.90
2019-02-26T01:18:35.725Z,99.90
2019-02-26T01:21:04.719Z,99.90
2019-02-26T01:23:33.801Z,99.90
2019-02-26T01:26:02.686Z,99.90
2019-02-26T01:28:31.532Z,99.90
2019-02-26T01:31:02.589Z,99.90
2019-02-26T01:33:32.128Z,99.90
2019-02-26T01:36:02.673Z,99.90
2019-02-26T01:38:31.804Z,99.90
2019-02-26T01:41:00.785Z,99.90
2019-02-26T01:43:29.703Z,99.90
2019-02-26T01:45:58.621Z,99.90
2019-02-26T01:48:27.545Z,99.90
2019-02-26T01:50:57.438Z,99.90
2019-02-26T01:53:27.420Z,99.90
2019-02-26T01:55:56.301Z,99.90
2019-02-26T01:58:25.293Z,99.90
2019-02-26T02:00:55.565Z,99.90
2019-02-26T02:03:25.560Z,99.90
2019-02-26T02:05:55.516Z,99.90
2019-02-26T02:08:25.011Z,99.90
2019-02-26T02:10:56.620Z,99.90
2019-02-26T02:13:28.357Z,99.90
2019-02-26T02:15:57.525Z,99.90
2019-02-26T02:18:28.116Z,99.90
2019-02-26T02:20:56.987Z,99.90
2019-02-26T02:23:27.954Z,99.90
2019-02-26T02:25:59.815Z,99.90
2019-02-26T02:28:28.576Z,99.90
2019-02-26T02:30:58.089Z,99.90
2019-02-26T02:33:29.593Z,99.90
2019-02-26T02:35:57.661Z,99.90
2019-02-26T02:38:26.599Z,99.90
2019-02-26T02:40:55.524Z,99.90
2019-02-26T02:43:24.514Z,99.90
2019-02-26T02:45:55.743Z,99.90
2019-02-26T02:48:24.273Z,99.90
2019-02-26T02:50:53.265Z,99.90
2019-02-26T02:53:23.959Z,99.90
2019-02-26T02:55:52.934Z,99.90
2019-02-26T02:58:23.919Z,99.90
2019-02-26T03:00:54.197Z,99.90
2019-02-26T03:03:23.240Z,99.90
2019-02-26T03:05:52.471Z,99.90
2019-02-26T03:08:22.337Z,99.90
2019-02-26T03:10:51.770Z,99.90
2019-02-26T03:13:22.895Z,99.90
2019-02-26T03:15:55.578Z,99.90
2019-02-26T03:18:23.693Z,99.90
2019-02-26T03:20:53.925Z,99.90
2019-02-26T03:23:23.486Z,99.90
2019-02-26T03:25:54.898Z,99.90
2019-02-26T03:28:23.266Z,99.90
2019-02-26T03:30:52.263Z,99.90
2019-02-26T03:33:21.103Z,99.90
2019-02-26T03:35:50.018Z,99.90
2019-02-26T03:38:20.708Z,99.90
2019-02-26T03:40:51.905Z,99.90
2019-02-26T03:43:20.243Z,99.90
2019-02-26T03:45:49.200Z,99.90
2019-02-26T03:48:20.327Z,99.90
2019-02-26T03:50:48.693Z,99.90
2019-02-26T03:53:17.626Z,99.90
2019-02-26T03:55:46.642Z,99.90
2019-02-26T03:58:15.480Z,99.90
2019-02-26T04:00:46.741Z,99.90
2019-02-26T04:03:17.307Z,99.90
2019-02-26T04:05:45.831Z,99.90
2019-02-26T04:08:16.671Z,99.90
2019-02-26T04:10:47.583Z,99.90
2019-02-26T04:13:16.107Z,99.90
2019-02-26T04:15:45.177Z,99.90
2019-02-26T04:18:14.026Z,99.90
2019-02-26T04:20:44.236Z,99.90
2019-02-26T04:23:16.552Z,99.90
2019-02-26T04:26:18.910Z,99.90
2019-02-26T04:28:57.344Z,99.90
2019-02-26T04:31:43.575Z,99.90
2019-02-26T04:34:26.117Z,99.90
2019-02-26T04:37:45.313Z,99.90
2019-02-26T04:40:36.330Z,99.90
2019-02-26T04:43:36.365Z,99.90
2019-02-26T04:46:25.537Z,99.90
2019-02-26T04:48:56.060Z,99.90
2019-02-26T04:51:24.901Z,99.90
2019-02-26T04:53:56.041Z,99.90
2019-02-26T04:56:24.586Z,99.90
2019-02-26T04:58:53.513Z,99.90
2019-02-26T05:01:22.535Z,99.90
2019-02-26T05:03:51.945Z,99.90
2019-02-26T05:06:20.797Z,99.90
2019-02-26T05:08:49.807Z,99.90
2019-02-26T05:11:31.122Z,99.90
2019-02-26T05:13:49.306Z,99.90
2019-02-26T05:16:18.408Z,99.90
2019-02-26T05:18:51.081Z,99.90
2019-02-26T05:21:17.801Z,99.90
2019-02-26T05:23:49.346Z,99.90
2019-02-26T05:26:18.732Z,99.90
2019-02-26T05:28:49.686Z,99.90
2019-02-26T05:31:18.828Z,99.90
2019-02-26T05:33:50.133Z,99.90
2019-02-26T05:36:18.554Z,99.90
2019-02-26T05:38:49.255Z,99.90
2019-02-26T05:41:18.429Z,99.90
2019-02-26T05:43:52.115Z,99.90
2019-02-26T05:46:19.530Z,99.90
2019-02-26T05:48:51.146Z,99.90
2019-02-26T05:51:19.871Z,99.90
2019-02-26T05:53:48.828Z,99.90
2019-02-26T05:56:20.155Z,99.90
2019-02-26T05:58:48.407Z,99.90
2019-02-26T06:01:19.353Z,99.90
2019-02-26T06:03:49.712Z,99.90
2019-02-26T06:06:18.681Z,99.90
2019-02-26T06:08:47.602Z,99.90
2019-02-26T06:11:17.156Z,99.90
2019-02-26T06:13:46.171Z,99.90
2019-02-26T06:16:15.022Z,99.90
2019-02-26T06:18:46.278Z,99.90
2019-02-26T06:21:16.504Z,99.90
2019-02-26T06:23:53.869Z,99.90
2019-02-26T06:26:22.887Z,99.90
2019-02-26T06:28:52.979Z,99.90
2019-02-26T06:31:24.814Z,99.90
2019-02-26T06:33:53.322Z,99.90
2019-02-26T06:36:23.481Z,99.90
2019-02-26T06:38:54.158Z,99.90
2019-02-26T06:41:23.553Z,99.90
2019-02-26T06:43:53.359Z,99.90
2019-02-26T06:46:23.228Z,99.90
2019-02-26T06:48:52.143Z,99.90
2019-02-26T06:51:22.099Z,99.90
2019-02-26T06:53:52.265Z,99.90
2019-02-26T06:56:22.153Z,99.90
2019-02-26T06:58:51.061Z,99.90
2019-02-26T07:01:19.918Z,99.90
2019-02-26T07:03:48.852Z,99.90
2019-02-26T07:06:20.544Z,99.90
2019-02-26T07:08:48.897Z,99.90
2019-02-26T07:11:19.079Z,99.90
2019-02-26T07:13:47.934Z,99.90
2019-02-26T07:16:18.127Z,99.90
2019-02-26T07:18:47.529Z,99.90
2019-02-26T07:21:16.378Z,99.90
2019-02-26T07:23:45.330Z,99.90
2019-02-26T07:26:16.028Z,99.90
2019-02-26T07:28:46.921Z,99.90
2019-02-26T07:31:15.558Z,99.90
2019-02-26T07:33:44.470Z,99.90
2019-02-26T07:36:13.320Z,99.90
2019-02-26T07:38:44.218Z,99.90
2019-02-26T07:41:12.954Z,99.90
2019-02-26T07:43:44.101Z,99.90
2019-02-26T07:46:14.468Z,99.90
2019-02-26T07:48:43.158Z,99.90
2019-02-26T07:51:12.136Z,99.90
2019-02-26T07:53:44.130Z,99.90
2019-02-26T07:56:11.639Z,99.90
2019-02-26T07:58:41.269Z,99.90
2019-02-26T08:01:11.321Z,99.90
2019-02-26T08:03:42.036Z,99.90
2019-02-26T08:06:12.154Z,99.90
2019-02-26T08:08:42.486Z,99.90
2019-02-26T08:11:12.458Z,99.90
2019-02-26T08:13:41.469Z,99.80
2019-02-26T08:16:10.415Z,99.70
2019-02-26T08:18:39.336Z,98.30
2019-02-26T08:21:08.259Z,97.40
2019-02-26T08:23:37.461Z,95.80
2019-02-26T08:26:06.374Z,94.10
2019-02-26T08:31:35.443Z,93.30
2019-02-26T08:34:05.277Z,91.30
2019-02-26T08:36:37.113Z,88.90
2019-02-26T08:39:07.729Z,86.40
2019-02-26T08:42:04.169Z,80.00
2019-02-26T08:44:41.362Z,80.10
2019-02-26T08:47:11.960Z,76.70
2019-02-26T08:49:47.477Z,74.60
2019-02-26T08:52:21.488Z,67.80
2019-02-26T08:54:52.532Z,70.70
2019-02-26T08:57:25.055Z,66.00
2019-02-26T08:59:54.613Z,61.20
2019-02-26T09:02:23.779Z,65.40
2019-02-26T09:04:52.777Z,63.50
2019-02-26T09:07:23.807Z,57.90
2019-02-26T09:09:54.891Z,58.80
2019-02-26T09:12:24.741Z,54.90
2019-02-26T09:14:53.817Z,57.80
2019-02-26T09:17:26.088Z,55.50
2019-02-26T09:20:06.343Z,53.30
2019-02-26T09:22:26.613Z,55.10
2019-02-26T09:24:56.823Z,51.60
2019-02-26T09:27:27.214Z,53.60
2019-02-26T09:29:56.654Z,49.00
2019-02-26T09:32:29.787Z,49.20
2019-02-26T09:35:04.790Z,50.50
2019-02-26T09:37:33.539Z,48.30
2019-02-26T09:40:04.808Z,49.50
2019-02-26T09:42:34.195Z,47.40
2019-02-26T09:45:03.649Z,47.90
2019-02-26T09:47:33.503Z,45.80
2019-02-26T09:50:03.435Z,45.40
2019-02-26T09:52:32.999Z,44.30
2019-02-26T09:55:02.603Z,48.70
2019-02-26T09:57:31.557Z,45.70
2019-02-26T10:00:02.932Z,44.20
2019-02-26T10:02:31.239Z,43.10
2019-02-26T10:05:00.445Z,42.90
2019-02-26T10:07:31.232Z,42.60
2019-02-26T10:10:01.141Z,42.80
2019-02-26T10:12:32.172Z,43.20
2019-02-26T10:15:02.465Z,39.80
2019-02-26T10:17:33.440Z,42.80
2019-02-26T10:20:05.057Z,37.60
2019-02-26T10:22:36.311Z,38.40
2019-02-26T10:25:06.065Z,41.90
2019-02-26T10:27:36.096Z,39.40
2019-02-26T10:30:09.918Z,36.60
2019-02-26T10:32:37.861Z,37.40
2019-02-26T10:35:09.330Z,37.50
2019-02-26T10:37:50.286Z,40.70
2019-02-26T10:40:19.621Z,37.10
2019-02-26T10:42:48.767Z,38.50
2019-02-26T10:45:19.316Z,40.50
2019-02-26T10:47:48.992Z,37.20
2019-02-26T10:50:22.226Z,34.70
2019-02-26T10:52:50.000Z,36.20
2019-02-26T10:55:21.880Z,37.90
2019-02-26T10:57:49.641Z,36.00
2019-02-26T11:00:22.671Z,36.50
2019-02-26T11:02:54.025Z,36.00
2019-02-26T11:05:26.212Z,36.40
2019-02-26T11:08:02.903Z,35.90
2019-02-26T11:10:32.103Z,37.00
2019-02-26T11:13:04.555Z,34.90
2019-02-26T11:15:36.036Z,35.70
2019-02-26T11:18:05.946Z,35.60
2019-02-26T11:20:35.589Z,34.30
2019-02-26T11:23:07.977Z,34.50
2019-02-26T11:25:37.422Z,34.50
2019-02-26T11:28:27.316Z,34.80
2019-02-26T11:30:57.526Z,35.90
2019-02-26T11:33:26.476Z,35.40
2019-02-26T11:35:55.508Z,36.90
2019-02-26T11:38:24.441Z,36.80
2019-02-26T11:40:53.434Z,37.10
2019-02-26T11:43:31.902Z,38.50
2019-02-26T11:46:01.566Z,38.10
2019-02-26T11:48:33.245Z,39.60
2019-02-26T11:51:02.794Z,40.00
2019-02-26T11:53:32.529Z,38.80
2019-02-26T11:56:02.119Z,41.80
2019-02-26T11:58:51.378Z,40.90
2019-02-26T12:01:32.199Z,40.70
2019-02-26T12:04:04.140Z,41.10
2019-02-26T12:06:34.788Z,42.20
2019-02-26T12:09:14.207Z,41.90
2019-02-26T12:11:43.730Z,42.20
2019-02-26T12:14:14.267Z,42.10
2019-02-26T12:16:45.025Z,43.30
2019-02-26T12:19:13.922Z,43.90
2019-02-26T12:21:43.378Z,43.20
2019-02-26T12:24:13.910Z,44.40
2019-02-26T12:26:45.316Z,44.30
2019-02-26T12:29:16.194Z,44.90
2019-02-26T12:31:47.310Z,45.30
2019-02-26T12:34:17.612Z,44.90
2019-02-26T12:36:48.091Z,45.20
2019-02-26T12:39:18.773Z,46.00
2019-02-26T12:41:50.423Z,45.60
2019-02-26T12:44:19.284Z,46.40
2019-02-26T12:47:00.175Z,46.50
2019-02-26T12:49:29.414Z,46.70
2019-02-26T12:51:59.938Z,46.40
2019-02-26T12:54:33.292Z,46.10
2019-02-26T12:57:03.909Z,46.70
2019-02-26T12:59:31.268Z,46.50
2019-02-26T13:02:00.278Z,47.10
2019-02-26T13:04:33.794Z,46.70
2019-02-26T13:07:09.339Z,47.00
2019-02-26T13:09:46.085Z,46.80
2019-02-26T13:12:12.652Z,46.60
2019-02-26T13:14:41.646Z,46.70
2019-02-26T13:17:17.499Z,47.00
2019-02-26T13:19:58.133Z,46.80
2019-02-26T13:22:23.943Z,46.20
2019-02-26T13:24:53.674Z,47.30
2019-02-26T13:27:23.669Z,46.40
2019-02-26T13:29:56.837Z,46.10
2019-02-26T13:32:26.229Z,44.60
2019-02-26T13:34:56.537Z,44.60
2019-02-26T13:37:31.497Z,45.70
2019-02-26T13:39:57.062Z,46.10
2019-02-26T13:42:27.015Z,45.30
2019-02-26T13:44:56.691Z,46.20
2019-02-26T13:47:25.659Z,46.40
2019-02-26T13:49:54.660Z,45.80
2019-02-26T13:52:23.578Z,46.00
2019-02-26T13:54:52.558Z,46.10
2019-02-26T13:57:21.623Z,46.10
2019-02-26T13:59:50.551Z,45.90
2019-02-26T14:02:19.514Z,45.70
2019-02-26T14:04:48.508Z,45.60
2019-02-26T14:07:17.877Z,44.20
2019-02-26T14:09:46.970Z,44.70
2019-02-26T14:12:16.174Z,45.00
2019-02-26T14:14:45.170Z,45.20
2019-02-26T14:17:14.199Z,43.20
2019-02-26T14:19:43.202Z,44.10
2019-02-26T14:22:12.050Z,45.60
2019-02-26T14:24:40.989Z,45.20
2019-02-26T14:27:09.958Z,45.40
2019-02-26T14:29:38.890Z,43.60
2019-02-26T14:32:08.271Z,42.80
2019-02-26T14:34:37.287Z,43.50
2019-02-26T14:37:06.587Z,42.90
2019-02-26T14:39:35.624Z,44.00
2019-02-26T14:42:04.625Z,42.60
2019-02-26T14:44:33.671Z,42.40
2019-02-26T14:47:03.002Z,43.40
2019-02-26T14:49:32.006Z,42.80
2019-02-26T14:52:00.943Z,43.30
2019-02-26T14:54:29.882Z,43.10
2019-02-26T14:57:02.879Z,43.20
2019-02-26T14:59:43.980Z,43.10
2019-02-26T15:02:21.750Z,43.00
2019-02-26T15:05:00.439Z,43.30
2019-02-26T15:07:32.595Z,43.40
2019-02-26T15:10:09.836Z,43.70
2019-02-26T15:12:39.395Z,43.30
2019-02-26T15:15:14.095Z,43.00
2019-02-26T15:17:57.264Z,42.80
2019-02-26T15:20:36.095Z,43.00
2019-02-26T15:23:06.939Z,43.30
2019-02-26T15:25:44.156Z,43.60
2019-02-26T15:28:13.098Z,43.70
2019-02-26T15:30:42.414Z,43.40
2019-02-26T15:33:11.859Z,43.90
2019-02-26T15:35:40.854Z,43.00
2019-02-26T15:38:09.774Z,43.10
2019-02-26T15:40:38.787Z,43.00
2019-02-26T15:43:07.790Z,43.60
2019-02-26T15:45:37.078Z,43.40
2019-02-26T15:48:06.090Z,43.10
2019-02-26T15:50:35.102Z,43.90
2019-02-26T15:53:04.105Z,43.70
2019-02-26T15:55:33.052Z,42.90
2019-02-26T15:58:04.340Z,42.90
2019-02-26T16:00:32.721Z,43.40
2019-02-26T16:03:01.694Z,43.20
2019-02-26T16:05:30.835Z,43.30
2019-02-26T16:07:59.764Z,43.70
2019-02-26T16:10:29.389Z,43.00
2019-02-26T16:13:04.198Z,42.50
2019-02-26T16:15:34.186Z,42.50
2019-02-26T16:18:03.252Z,42.30
2019-02-26T16:20:32.634Z,43.50
2019-02-26T16:23:01.648Z,43.30
2019-02-26T16:25:30.561Z,43.30
2019-02-26T16:27:59.485Z,43.80
2019-02-26T16:30:28.890Z,44.00
2019-02-26T16:32:58.079Z,43.40
2019-02-26T16:35:27.291Z,44.20
2019-02-26T16:37:56.318Z,43.60
2019-02-26T16:40:25.318Z,44.00
2019-02-26T16:42:54.398Z,43.90
2019-02-26T16:45:23.731Z,44.20
2019-02-26T16:47:52.726Z,44.40
2019-02-26T16:50:22.479Z,45.00
2019-02-26T16:52:52.003Z,44.60
2019-02-26T16:55:21.113Z,44.70
2019-02-26T16:57:50.162Z,46.00
2019-02-26T17:00:20.685Z,47.10
2019-02-26T17:02:49.730Z,47.30
2019-02-26T17:05:18.726Z,48.30
2019-02-26T17:07:47.673Z,49.80
2019-02-26T17:10:17.742Z,50.10
2019-02-26T17:12:52.754Z,51.40
2019-02-26T17:15:24.628Z,52.70
2019-02-26T17:17:54.166Z,53.50
2019-02-26T17:20:23.654Z,53.80
2019-02-26T17:22:52.654Z,54.80
2019-02-26T17:25:21.653Z,54.70
2019-02-26T17:27:50.606Z,54.90
2019-02-26T17:30:20.836Z,55.90
2019-02-26T17:32:50.387Z,56.40
2019-02-26T17:35:19.648Z,57.30
2019-02-26T17:37:48.826Z,58.30
2019-02-26T17:40:17.949Z,57.60
2019-02-26T17:42:48.837Z,58.20
2019-02-26T17:45:18.271Z,58.70
2019-02-26T17:47:47.323Z,59.50
2019-02-26T17:50:25.405Z,59.70
2019-02-26T17:52:54.674Z,59.30
2019-02-26T17:55:24.190Z,59.70
2019-02-26T17:57:53.125Z,60.00
2019-02-26T18:00:23.337Z,60.40
2019-02-26T18:02:52.350Z,60.80
2019-02-26T18:05:21.373Z,62.50
2019-02-26T18:07:50.473Z,60.60
2019-02-26T18:10:19.653Z,61.20
2019-02-26T18:12:48.670Z,61.60
2019-02-26T18:15:18.516Z,62.40
2019-02-26T18:17:48.123Z,61.50
2019-02-26T18:20:18.013Z,62.70
2019-02-26T18:22:47.065Z,62.80
2019-02-26T18:25:16.550Z,63.20
2019-02-26T18:27:46.680Z,63.40
2019-02-26T18:30:22.697Z,63.50
2019-02-26T18:32:55.603Z,64.70
2019-02-26T18:35:22.895Z,62.60
2019-02-26T18:37:52.208Z,63.50
2019-02-26T18:40:21.246Z,64.30
2019-02-26T18:42:50.245Z,65.80
2019-02-26T18:45:21.587Z,66.00
2019-02-26T18:47:50.597Z,66.40
2019-02-26T18:50:19.678Z,66.90
2019-02-26T18:52:48.702Z,67.90
2019-02-26T18:55:18.392Z,68.00
2019-02-26T18:57:47.468Z,67.20
2019-02-26T19:00:25.991Z,68.00
2019-02-26T19:02:54.860Z,68.90
2019-02-26T19:05:23.878Z,71.20
2019-02-26T19:07:52.890Z,71.50
2019-02-26T19:10:21.891Z,71.70
2019-02-26T19:12:51.476Z,72.00
2019-02-26T19:15:20.741Z,72.80
2019-02-26T19:17:51.402Z,72.20
2019-02-26T19:20:22.345Z,71.70
2019-02-26T19:22:52.047Z,73.10
2019-02-26T19:25:22.093Z,73.30
2019-02-26T19:27:53.090Z,75.20
2019-02-26T19:30:21.916Z,75.50
2019-02-26T19:32:51.371Z,76.30
2019-02-26T19:35:20.370Z,78.00
2019-02-26T19:37:52.699Z,77.70
2019-02-26T19:40:24.447Z,80.30
2019-02-26T19:42:53.479Z,81.20
2019-02-26T19:45:22.581Z,81.40
2019-02-26T19:47:55.810Z,81.70
2019-02-26T19:50:22.349Z,80.30
2019-02-26T19:52:56.992Z,81.60
2019-02-26T19:55:27.074Z,81.20
2019-02-26T19:57:56.075Z,82.70
2019-02-26T20:00:25.130Z,84.40
2019-02-26T20:02:54.279Z,83.60
2019-02-26T20:05:23.609Z,86.40
2019-02-26T20:07:53.237Z,86.80
2019-02-26T20:10:22.599Z,86.50
2019-02-26T20:12:51.683Z,85.60
2019-02-26T20:15:21.891Z,90.20
2019-02-26T20:17:51.844Z,90.60
2019-02-26T20:20:20.819Z,89.70
2019-02-26T20:22:49.817Z,91.20
2019-02-26T20:25:19.283Z,90.00
2019-02-26T20:27:48.393Z,90.20
2019-02-26T20:30:18.694Z,90.90
2019-02-26T20:32:47.730Z,92.40
2019-02-26T20:35:17.133Z,91.30
2019-02-26T20:37:46.445Z,91.30
2019-02-26T20:40:17.106Z,92.50
2019-02-26T20:42:46.089Z,92.50
2019-02-26T20:45:18.123Z,94.10
2019-02-26T20:47:47.133Z,92.80
2019-02-26T20:50:19.918Z,94.30
2019-02-26T20:52:46.791Z,92.80
2019-02-26T20:55:19.129Z,94.00
2019-02-26T20:57:47.815Z,93.70
2019-02-26T21:00:18.180Z,95.10
2019-02-26T21:02:47.229Z,93.50
2019-02-26T21:05:16.186Z,95.00
2019-02-26T21:07:45.177Z,94.90
2019-02-26T21:10:15.393Z,95.90
2019-02-26T21:12:45.121Z,95.50
2019-02-26T21:15:15.823Z,95.80
2019-02-26T21:17:44.721Z,95.90
2019-02-26T21:20:14.146Z,97.20
2019-02-26T21:22:43.162Z,96.40
2019-02-26T21:25:12.329Z,97.40
2019-02-26T21:27:41.341Z,97.10
2019-02-26T21:30:12.612Z,98.50
2019-02-26T21:32:41.557Z,98.80
2019-02-26T21:35:10.802Z,97.90
2019-02-26T21:37:39.753Z,98.00
2019-02-26T21:40:08.971Z,98.30
2019-02-26T21:42:38.096Z,98.30
2019-02-26T21:45:08.223Z,98.20
2019-02-26T21:47:37.061Z,97.90
2019-02-26T21:50:06.831Z,98.40
2019-02-26T21:52:35.747Z,99.30
2019-02-26T21:55:04.741Z,98.80
2019-02-26T21:57:33.746Z,98.90
2019-02-26T22:00:05.150Z,98.60
2019-02-26T22:02:33.304Z,99.70
2019-02-26T22:05:04.997Z,99.50
2019-02-26T22:07:32.810Z,99.90
2019-02-26T22:10:01.654Z,99.90
2019-02-26T22:12:30.621Z,99.50
2019-02-26T22:14:59.570Z,99.90
2019-02-26T22:17:28.415Z,99.90
2019-02-26T22:19:57.362Z,99.70
2019-02-26T22:22:26.781Z,99.90
2019-02-26T22:24:55.762Z,99.90
2019-02-26T22:27:24.858Z,99.90
2019-02-26T22:29:53.782Z,99.90
2019-02-26T22:32:22.781Z,99.90
2019-02-26T22:34:53.575Z,99.90
2019-02-26T22:37:22.369Z,99.90
2019-02-26T22:39:51.221Z,99.90
2019-02-26T22:42:20.151Z,99.90
2019-02-26T22:44:49.374Z,99.90
2019-02-26T22:47:18.290Z,99.90
2019-02-26T22:49:47.250Z,99.90
2019-02-26T22:52:16.514Z,99.90
2019-02-26T22:54:45.384Z,99.90
2019-02-26T22:57:14.257Z,99.90
2019-02-26T22:59:43.478Z,99.90
2019-02-26T23:02:12.878Z,99.90
2019-02-26T23:04:41.893Z,99.90
2019-02-26T23:07:11.261Z,99.90
2019-02-26T23:09:40.114Z,99.90
2019-02-26T23:12:09.173Z,99.90
2019-02-26T23:14:39.328Z,99.90
2019-02-26T23:17:10.011Z,99.90
2019-02-26T23:19:39.456Z,99.90
2019-02-26T23:22:08.620Z,99.90
2019-02-26T23:24:37.703Z,99.90
2019-02-26T23:27:07.325Z,99.90
2019-02-26T23:29:37.890Z,99.90
2019-02-26T23:32:07.568Z,99.90
2019-02-26T23:34:36.661Z,99.90
2019-02-26T23:37:06.829Z,99.90
2019-02-26T23:39:36.025Z,99.90
2019-02-26T23:42:06.013Z,99.90
2019-02-26T23:44:35.690Z,99.90
2019-02-26T23:47:04.810Z,99.90
2019-02-26T23:49:33.833Z,99.90
2019-02-26T23:52:02.894Z,99.90
2019-02-26T23:54:31.754Z,99.90
2019-02-26T23:57:00.614Z,99.90
2019-02-26T23:59:29.526Z,99.90
